sensor_id;sensor_type;location;lat;lon;timestamp;pressure;altitude;pressure_sealevel;temperature;humidity
80648;BME280;70012;0.000;0.000;2024-02-14T00:00:33;100709.97;;;7.29;75.41
80648;BME280;70012;0.000;0.000;2024-02-14T00:03:00;100699.09;;;7.29;75.71
80648;BME280;70012;0.000;0.000;2024-02-14T00:05:27;100703.47;;;7.30;75.78
80648;BME280;70012;0.000;0.000;2024-02-14T00:07:55;100688.19;;;7.29;75.65
80648;BME280;70012;0.000;0.000;2024-02-14T00:10:22;100691.97;;;7.28;75.62
80648;BME280;70012;0.000;0.000;2024-02-14T00:12:49;100691.97;;;7.28;75.80
80648;BME280;70012;0.000;0.000;2024-02-14T00:15:15;100683.66;;;7.23;75.61
80648;BME280;70012;0.000;0.000;2024-02-14T00:17:42;100685.31;;;7.24;75.85
80648;BME280;70012;0.000;0.000;2024-02-14T00:20:10;100684.25;;;7.25;76.08
80648;BME280;70012;0.000;0.000;2024-02-14T00:22:39;100697.88;;;7.25;76.30
80648;BME280;70012;0.000;0.000;2024-02-14T00:25:05;100689.72;;;7.25;76.22
80648;BME280;70012;0.000;0.000;2024-02-14T00:27:32;100687.00;;;7.25;76.39
80648;BME280;70012;0.000;0.000;2024-02-14T00:29:59;100689.47;;;7.27;76.55
80648;BME280;70012;0.000;0.000;2024-02-14T00:32:26;100692.44;;;7.25;76.49
80648;BME280;70012;0.000;0.000;2024-02-14T00:34:53;100694.69;;;7.28;76.87
80648;BME280;70012;0.000;0.000;2024-02-14T00:37:19;100689.25;;;7.28;77.02
80648;BME280;70012;0.000;0.000;2024-02-14T00:39:46;100687.38;;;7.29;77.07
80648;BME280;70012;0.000;0.000;2024-02-14T00:42:15;100699.09;;;7.29;77.25
80648;BME280;70012;0.000;0.000;2024-02-14T00:44:42;100691.97;;;7.28;77.15
80648;BME280;70012;0.000;0.000;2024-02-14T00:47:08;100696.97;;;7.31;77.03
80648;BME280;70012;0.000;0.000;2024-02-14T00:49:35;100687.16;;;7.30;77.02
80648;BME280;70012;0.000;0.000;2024-02-14T00:52:03;100693.22;;;7.32;77.33
80648;BME280;70012;0.000;0.000;2024-02-14T00:54:29;100683.13;;;7.33;77.32
80648;BME280;70012;0.000;0.000;2024-02-14T00:56:56;100680.19;;;7.34;77.26
80648;BME280;70012;0.000;0.000;2024-02-14T00:59:22;100686.25;;;7.36;77.42
80648;BME280;70012;0.000;0.000;2024-02-14T01:01:51;100681.03;;;7.35;77.38
80648;BME280;70012;0.000;0.000;2024-02-14T01:04:18;100673.69;;;7.35;77.66
80648;BME280;70012;0.000;0.000;2024-02-14T01:06:44;100670.53;;;7.39;77.61
80648;BME280;70012;0.000;0.000;2024-02-14T01:09:11;100662.94;;;7.41;78.06
80648;BME280;70012;0.000;0.000;2024-02-14T01:11:38;100652.03;;;7.41;77.98
80648;BME280;70012;0.000;0.000;2024-02-14T01:14:05;100652.66;;;7.43;78.38
80648;BME280;70012;0.000;0.000;2024-02-14T01:16:32;100653.72;;;7.42;78.38
80648;BME280;70012;0.000;0.000;2024-02-14T01:18:58;100648.88;;;7.44;78.04
80648;BME280;70012;0.000;0.000;2024-02-14T01:21:25;100661.66;;;7.43;78.20
80648;BME280;70012;0.000;0.000;2024-02-14T01:23:52;100643.06;;;7.40;78.14
80648;BME280;70012;0.000;0.000;2024-02-14T01:26:18;100661.88;;;7.42;78.30
80648;BME280;70012;0.000;0.000;2024-02-14T01:28:47;100656.28;;;7.36;78.28
80648;BME280;70012;0.000;0.000;2024-02-14T01:31:14;100643.72;;;7.35;78.44
80648;BME280;70012;0.000;0.000;2024-02-14T01:33:40;100638.75;;;7.32;78.40
80648;BME280;70012;0.000;0.000;2024-02-14T01:36:07;100650.44;;;7.33;78.46
80648;BME280;70012;0.000;0.000;2024-02-14T01:38:34;100642.94;;;7.28;78.65
80648;BME280;70012;0.000;0.000;2024-02-14T01:41:03;100650.50;;;7.26;78.75
80648;BME280;70012;0.000;0.000;2024-02-14T01:43:30;100638.41;;;7.22;78.94
80648;BME280;70012;0.000;0.000;2024-02-14T01:46:04;100651.41;;;7.20;79.23
80648;BME280;70012;0.000;0.000;2024-02-14T01:48:31;100643.22;;;7.20;79.75
80648;BME280;70012;0.000;0.000;2024-02-14T01:50:58;100654.34;;;7.18;79.49
80648;BME280;70012;0.000;0.000;2024-02-14T01:53:26;100653.53;;;7.18;79.52
80648;BME280;70012;0.000;0.000;2024-02-14T01:55:57;100658.13;;;7.17;79.75
80648;BME280;70012;0.000;0.000;2024-02-14T01:58:26;100650.19;;;7.16;79.81
80648;BME280;70012;0.000;0.000;2024-02-14T02:00:53;100653.13;;;7.14;80.35
80648;BME280;70012;0.000;0.000;2024-02-14T02:03:24;100643.47;;;7.18;79.97
80648;BME280;70012;0.000;0.000;2024-02-14T02:05:53;100638.88;;;7.19;80.65
80648;BME280;70012;0.000;0.000;2024-02-14T02:08:21;100635.06;;;7.20;80.54
80648;BME280;70012;0.000;0.000;2024-02-14T02:10:48;100627.50;;;7.22;80.63
80648;BME280;70012;0.000;0.000;2024-02-14T02:13:15;100624.16;;;7.20;80.78
80648;BME280;70012;0.000;0.000;2024-02-14T02:15:42;100637.97;;;7.25;80.98
80648;BME280;70012;0.000;0.000;2024-02-14T02:18:12;100627.06;;;7.25;80.63
80648;BME280;70012;0.000;0.000;2024-02-14T02:20:39;100621.63;;;7.25;80.79
80648;BME280;70012;0.000;0.000;2024-02-14T02:23:11;100630.19;;;7.29;81.01
80648;BME280;70012;0.000;0.000;2024-02-14T02:25:41;100633.72;;;7.29;81.03
80648;BME280;70012;0.000;0.000;2024-02-14T02:28:09;100637.50;;;7.28;80.97
80648;BME280;70012;0.000;0.000;2024-02-14T02:30:36;100632.91;;;7.29;81.22
80648;BME280;70012;0.000;0.000;2024-02-14T02:33:04;100635.41;;;7.30;81.16
80648;BME280;70012;0.000;0.000;2024-02-14T02:35:32;100622.81;;;7.29;81.53
80648;BME280;70012;0.000;0.000;2024-02-14T02:37:59;100637.06;;;7.31;81.30
80648;BME280;70012;0.000;0.000;2024-02-14T02:40:26;100633.28;;;7.32;81.51
80648;BME280;70012;0.000;0.000;2024-02-14T02:42:54;100634.94;;;7.33;81.34
80648;BME280;70012;0.000;0.000;2024-02-14T02:45:20;100639.94;;;7.36;81.65
80648;BME280;70012;0.000;0.000;2024-02-14T02:47:47;100645.38;;;7.36;81.43
80648;BME280;70012;0.000;0.000;2024-02-14T02:50:14;100644.53;;;7.36;81.53
80648;BME280;70012;0.000;0.000;2024-02-14T02:52:41;100638.28;;;7.35;81.47
80648;BME280;70012;0.000;0.000;2024-02-14T02:55:08;100639.94;;;7.36;81.74
80648;BME280;70012;0.000;0.000;2024-02-14T02:57:35;100651.28;;;7.33;81.80
80648;BME280;70012;0.000;0.000;2024-02-14T03:00:06;100655.06;;;7.32;82.02
80648;BME280;70012;0.000;0.000;2024-02-14T03:02:35;100658.38;;;7.34;81.69
80648;BME280;70012;0.000;0.000;2024-02-14T03:05:04;100668.47;;;7.34;82.46
80648;BME280;70012;0.000;0.000;2024-02-14T03:07:37;100680.78;;;7.36;82.04
80648;BME280;70012;0.000;0.000;2024-02-14T03:10:04;100677.84;;;7.38;82.03
80648;BME280;70012;0.000;0.000;2024-02-14T03:12:31;100679.28;;;7.41;81.77
80648;BME280;70012;0.000;0.000;2024-02-14T03:15:03;100674.69;;;7.41;82.29
80648;BME280;70012;0.000;0.000;2024-02-14T03:17:31;100677.19;;;7.43;81.95
80648;BME280;70012;0.000;0.000;2024-02-14T03:19:58;100678.00;;;7.43;81.77
80648;BME280;70012;0.000;0.000;2024-02-14T03:22:25;100676.34;;;7.42;81.83
80648;BME280;70012;0.000;0.000;2024-02-14T03:24:51;100687.63;;;7.46;81.94
80648;BME280;70012;0.000;0.000;2024-02-14T03:27:18;100678.38;;;7.47;82.04
80648;BME280;70012;0.000;0.000;2024-02-14T03:29:45;100691.81;;;7.48;82.04
80648;BME280;70012;0.000;0.000;2024-02-14T03:32:14;100690.94;;;7.48;82.02
80648;BME280;70012;0.000;0.000;2024-02-14T03:34:40;100682.53;;;7.49;81.40
80648;BME280;70012;0.000;0.000;2024-02-14T03:37:07;100680.66;;;7.50;81.58
80648;BME280;70012;0.000;0.000;2024-02-14T03:39:34;100683.41;;;7.50;81.75
80648;BME280;70012;0.000;0.000;2024-02-14T03:42:00;100677.94;;;7.50;81.80
80648;BME280;70012;0.000;0.000;2024-02-14T03:44:33;100674.16;;;7.51;82.13
80648;BME280;70012;0.000;0.000;2024-02-14T03:46:59;100685.06;;;7.51;81.59
80648;BME280;70012;0.000;0.000;2024-02-14T03:49:26;100677.94;;;7.50;81.64
80648;BME280;70012;0.000;0.000;2024-02-14T03:51:53;100663.28;;;7.51;81.70
80648;BME280;70012;0.000;0.000;2024-02-14T03:54:21;100670.81;;;7.49;81.92
80648;BME280;70012;0.000;0.000;2024-02-14T03:56:47;100675.22;;;7.50;81.94
80648;BME280;70012;0.000;0.000;2024-02-14T03:59:14;100683.41;;;7.50;81.85
80648;BME280;70012;0.000;0.000;2024-02-14T04:01:44;100678.38;;;7.47;82.32
80648;BME280;70012;0.000;0.000;2024-02-14T04:04:14;100673.16;;;7.45;81.72
80648;BME280;70012;0.000;0.000;2024-02-14T04:06:41;100679.47;;;7.46;82.33
80648;BME280;70012;0.000;0.000;2024-02-14T04:09:09;100683.00;;;7.46;82.33
80648;BME280;70012;0.000;0.000;2024-02-14T04:11:35;100682.19;;;7.46;82.39
80648;BME280;70012;0.000;0.000;2024-02-14T04:14:02;100683.25;;;7.45;81.98
80648;BME280;70012;0.000;0.000;2024-02-14T04:16:29;100689.75;;;7.44;82.78
80648;BME280;70012;0.000;0.000;2024-02-14T04:18:56;100687.63;;;7.46;82.43
80648;BME280;70012;0.000;0.000;2024-02-14T04:21:22;100689.28;;;7.47;82.76
80648;BME280;70012;0.000;0.000;2024-02-14T04:23:49;100694.72;;;7.47;82.39
80648;BME280;70012;0.000;0.000;2024-02-14T04:26:22;100693.09;;;7.46;82.30
80648;BME280;70012;0.000;0.000;2024-02-14T04:28:49;100684.69;;;7.47;82.75
80648;BME280;70012;0.000;0.000;2024-02-14T04:31:15;100682.19;;;7.46;82.91
80648;BME280;70012;0.000;0.000;2024-02-14T04:33:42;100687.16;;;7.49;82.92
80648;BME280;70012;0.000;0.000;2024-02-14T04:36:10;100683.63;;;7.48;82.68
80648;BME280;70012;0.000;0.000;2024-02-14T04:38:38;100689.66;;;7.50;82.96
80648;BME280;70012;0.000;0.000;2024-02-14T04:41:05;100687.13;;;7.56;82.76
80648;BME280;70012;0.000;0.000;2024-02-14T04:43:31;100683.53;;;7.55;82.69
80648;BME280;70012;0.000;0.000;2024-02-14T04:45:58;100681.44;;;7.57;83.30
80648;BME280;70012;0.000;0.000;2024-02-14T04:48:25;100680.38;;;7.58;83.02
80648;BME280;70012;0.000;0.000;2024-02-14T04:50:52;100689.63;;;7.57;83.15
80648;BME280;70012;0.000;0.000;2024-02-14T04:53:19;100693.53;;;7.61;82.54
80648;BME280;70012;0.000;0.000;2024-02-14T04:55:46;100682.06;;;7.59;83.02
80648;BME280;70012;0.000;0.000;2024-02-14T04:58:12;100695.44;;;7.61;82.66
80648;BME280;70012;0.000;0.000;2024-02-14T05:00:39;100693.78;;;7.60;82.83
80648;BME280;70012;0.000;0.000;2024-02-14T05:03:06;100689.16;;;7.60;83.06
80648;BME280;70012;0.000;0.000;2024-02-14T05:05:33;100690.81;;;7.61;82.67
80648;BME280;70012;0.000;0.000;2024-02-14T05:08:02;100682.06;;;7.59;82.72
80648;BME280;70012;0.000;0.000;2024-02-14T05:10:29;100685.38;;;7.61;82.96
80648;BME280;70012;0.000;0.000;2024-02-14T05:12:55;100687.50;;;7.59;82.86
80648;BME280;70012;0.000;0.000;2024-02-14T05:15:22;100690.00;;;7.61;83.12
80648;BME280;70012;0.000;0.000;2024-02-14T05:17:49;100694.59;;;7.60;82.75
80648;BME280;70012;0.000;0.000;2024-02-14T05:20:16;100702.78;;;7.60;83.47
80648;BME280;70012;0.000;0.000;2024-02-14T05:22:43;100705.50;;;7.60;82.82
80648;BME280;70012;0.000;0.000;2024-02-14T05:25:10;100703.84;;;7.59;83.26
80648;BME280;70012;0.000;0.000;2024-02-14T05:27:37;100703.00;;;7.59;83.20
80648;BME280;70012;0.000;0.000;2024-02-14T05:30:04;100705.97;;;7.57;82.83
80648;BME280;70012;0.000;0.000;2024-02-14T05:32:32;100702.63;;;7.55;83.28
80648;BME280;70012;0.000;0.000;2024-02-14T05:35:00;100712.69;;;7.55;83.26
80648;BME280;70012;0.000;0.000;2024-02-14T05:37:28;100696.78;;;7.51;83.74
80648;BME280;70012;0.000;0.000;2024-02-14T05:39:55;100707.44;;;7.53;83.43
80648;BME280;70012;0.000;0.000;2024-02-14T05:42:22;100715.63;;;7.53;83.64
80648;BME280;70012;0.000;0.000;2024-02-14T05:44:50;100703.09;;;7.52;83.59
80648;BME280;70012;0.000;0.000;2024-02-14T05:47:18;100719.19;;;7.53;83.74
80648;BME280;70012;0.000;0.000;2024-02-14T05:49:45;100731.53;;;7.56;84.00
80648;BME280;70012;0.000;0.000;2024-02-14T05:52:12;100720.22;;;7.59;83.54
80648;BME280;70012;0.000;0.000;2024-02-14T05:54:39;100724.38;;;7.62;83.76
80648;BME280;70012;0.000;0.000;2024-02-14T05:57:05;100730.63;;;7.62;83.89
80648;BME280;70012;0.000;0.000;2024-02-14T05:59:33;100722.22;;;7.64;83.94
80648;BME280;70012;0.000;0.000;2024-02-14T06:02:01;100715.97;;;7.63;84.10
80648;BME280;70012;0.000;0.000;2024-02-14T06:04:29;100720.94;;;7.66;83.82
80648;BME280;70012;0.000;0.000;2024-02-14T06:06:56;100716.34;;;7.67;83.69
80648;BME280;70012;0.000;0.000;2024-02-14T06:09:22;100724.28;;;7.68;83.89
80648;BME280;70012;0.000;0.000;2024-02-14T06:11:49;100710.91;;;7.67;84.25
80648;BME280;70012;0.000;0.000;2024-02-14T06:14:16;100713.38;;;7.68;84.03
80648;BME280;70012;0.000;0.000;2024-02-14T06:16:43;100710.66;;;7.68;83.59
80648;BME280;70012;0.000;0.000;2024-02-14T06:19:10;100716.13;;;7.68;83.77
80648;BME280;70012;0.000;0.000;2024-02-14T06:21:38;100715.50;;;7.66;83.89
80648;BME280;70012;0.000;0.000;2024-02-14T06:24:05;100714.91;;;7.64;83.76
80648;BME280;70012;0.000;0.000;2024-02-14T06:26:32;100716.56;;;7.65;83.54
80648;BME280;70012;0.000;0.000;2024-02-14T06:29:00;100723.09;;;7.64;83.90
80648;BME280;70012;0.000;0.000;2024-02-14T06:31:26;100733.97;;;7.64;83.84
80648;BME280;70012;0.000;0.000;2024-02-14T06:33:53;100732.31;;;7.63;83.49
80648;BME280;70012;0.000;0.000;2024-02-14T06:36:20;100736.91;;;7.63;83.65
80648;BME280;70012;0.000;0.000;2024-02-14T06:38:47;100735.28;;;7.62;83.49
80648;BME280;70012;0.000;0.000;2024-02-14T06:41:13;100752.44;;;7.62;83.46
80648;BME280;70012;0.000;0.000;2024-02-14T06:43:40;100743.66;;;7.60;83.98
80648;BME280;70012;0.000;0.000;2024-02-14T06:46:06;100749.09;;;7.60;83.76
80648;BME280;70012;0.000;0.000;2024-02-14T06:48:33;100748.28;;;7.60;83.86
80648;BME280;70012;0.000;0.000;2024-02-14T06:51:01;100745.09;;;7.63;83.94
80648;BME280;70012;0.000;0.000;2024-02-14T06:53:27;100741.53;;;7.62;84.22
80648;BME280;70012;0.000;0.000;2024-02-14T06:55:54;100749.72;;;7.62;83.86
80648;BME280;70012;0.000;0.000;2024-02-14T06:58:21;100744.25;;;7.62;84.22
80648;BME280;70012;0.000;0.000;2024-02-14T07:00:47;100752.44;;;7.62;83.93
80648;BME280;70012;0.000;0.000;2024-02-14T07:03:14;100745.94;;;7.63;84.05
80648;BME280;70012;0.000;0.000;2024-02-14T07:05:41;100752.00;;;7.65;84.02
80648;BME280;70012;0.000;0.000;2024-02-14T07:08:08;100749.88;;;7.67;84.21
80648;BME280;70012;0.000;0.000;2024-02-14T07:10:35;100754.25;;;7.68;83.99
80648;BME280;70012;0.000;0.000;2024-02-14T07:13:02;100754.88;;;7.71;84.50
80648;BME280;70012;0.000;0.000;2024-02-14T07:15:29;100754.88;;;7.71;83.83
80648;BME280;70012;0.000;0.000;2024-02-14T07:17:56;100758.81;;;7.75;84.28
80648;BME280;70012;0.000;0.000;2024-02-14T07:20:24;100751.69;;;7.74;84.19
80648;BME280;70012;0.000;0.000;2024-02-14T07:22:54;100759.81;;;7.80;84.24
80648;BME280;70012;0.000;0.000;2024-02-14T07:25:23;100764.22;;;7.81;84.15
80648;BME280;70012;0.000;0.000;2024-02-14T07:27:49;100756.44;;;7.85;84.08
80648;BME280;70012;0.000;0.000;2024-02-14T07:30:16;100762.25;;;7.89;84.03
80648;BME280;70012;0.000;0.000;2024-02-14T07:32:44;100760.13;;;7.91;84.20
80648;BME280;70012;0.000;0.000;2024-02-14T07:35:11;100759.31;;;7.90;84.13
80648;BME280;70012;0.000;0.000;2024-02-14T07:37:40;100756.72;;;7.95;83.89
80648;BME280;70012;0.000;0.000;2024-02-14T07:40:07;100757.94;;;7.99;83.94
80648;BME280;70012;0.000;0.000;2024-02-14T07:42:34;100759.41;;;8.02;84.00
80648;BME280;70012;0.000;0.000;2024-02-14T07:45:00;100756.19;;;8.05;83.96
80648;BME280;70012;0.000;0.000;2024-02-14T07:47:30;100753.84;;;8.09;84.03
80648;BME280;70012;0.000;0.000;2024-02-14T07:49:57;100762.81;;;8.16;83.84
80648;BME280;70012;0.000;0.000;2024-02-14T07:52:25;100777.44;;;8.22;83.68
80648;BME280;70012;0.000;0.000;2024-02-14T07:54:53;100786.13;;;8.30;83.89
80648;BME280;70012;0.000;0.000;2024-02-14T07:57:22;100783.13;;;8.39;83.68
80648;BME280;70012;0.000;0.000;2024-02-14T07:59:50;100795.22;;;8.43;83.30
80648;BME280;70012;0.000;0.000;2024-02-14T08:02:18;100791.84;;;8.47;83.52
80648;BME280;70012;0.000;0.000;2024-02-14T08:04:45;100788.88;;;8.49;83.39
80648;BME280;70012;0.000;0.000;2024-02-14T08:07:12;100790.47;;;8.57;82.81
80648;BME280;70012;0.000;0.000;2024-02-14T08:09:38;100796.09;;;8.62;83.25
80648;BME280;70012;0.000;0.000;2024-02-14T08:12:06;100804.66;;;8.65;82.99
80648;BME280;70012;0.000;0.000;2024-02-14T08:14:33;100798.72;;;8.69;82.96
80648;BME280;70012;0.000;0.000;2024-02-14T08:16:59;100792.81;;;8.72;82.97
80648;BME280;70012;0.000;0.000;2024-02-14T08:19:26;100797.78;;;8.75;82.96
80648;BME280;70012;0.000;0.000;2024-02-14T08:21:53;100788.09;;;8.79;82.86
80648;BME280;70012;0.000;0.000;2024-02-14T08:24:27;100789.28;;;8.83;82.56
80648;BME280;70012;0.000;0.000;2024-02-14T08:26:54;100788.84;;;8.86;82.81
80648;BME280;70012;0.000;0.000;2024-02-14T08:29:21;100789.56;;;8.93;82.53
80648;BME280;70012;0.000;0.000;2024-02-14T08:31:48;100781.53;;;8.99;82.87
80648;BME280;70012;0.000;0.000;2024-02-14T08:34:15;100791.03;;;9.08;82.60
80648;BME280;70012;0.000;0.000;2024-02-14T08:36:43;100791.19;;;9.13;82.50
80648;BME280;70012;0.000;0.000;2024-02-14T08:39:10;100796.31;;;9.21;82.34
80648;BME280;70012;0.000;0.000;2024-02-14T08:41:37;100802.03;;;9.32;82.00
80648;BME280;70012;0.000;0.000;2024-02-14T08:44:04;100797.78;;;9.36;81.61
80648;BME280;70012;0.000;0.000;2024-02-14T08:46:31;100800.63;;;9.41;81.38
80648;BME280;70012;0.000;0.000;2024-02-14T08:49:01;100806.69;;;9.43;80.86
80648;BME280;70012;0.000;0.000;2024-02-14T08:51:38;100808.97;;;9.46;81.34
80648;BME280;70012;0.000;0.000;2024-02-14T08:54:04;100807.44;;;9.50;80.98
80648;BME280;70012;0.000;0.000;2024-02-14T08:56:33;100819.53;;;9.54;81.13
80648;BME280;70012;0.000;0.000;2024-02-14T08:59:01;100821.34;;;9.60;81.32
80648;BME280;70012;0.000;0.000;2024-02-14T09:01:29;100812.44;;;9.65;81.28
80648;BME280;70012;0.000;0.000;2024-02-14T09:03:56;100809.81;;;9.70;81.47
80648;BME280;70012;0.000;0.000;2024-02-14T09:06:23;100817.81;;;9.72;81.11
80648;BME280;70012;0.000;0.000;2024-02-14T09:08:50;100807.59;;;9.79;81.00
80648;BME280;70012;0.000;0.000;2024-02-14T09:11:17;100812.56;;;9.82;80.98
80648;BME280;70012;0.000;0.000;2024-02-14T09:13:44;100813.78;;;9.86;80.75
80648;BME280;70012;0.000;0.000;2024-02-14T09:16:14;100814.97;;;9.90;80.51
80648;BME280;70012;0.000;0.000;2024-02-14T09:18:41;100816.13;;;9.94;79.85
80648;BME280;70012;0.000;0.000;2024-02-14T09:21:09;100819.47;;;9.97;80.25
80648;BME280;70012;0.000;0.000;2024-02-14T09:23:35;100820.06;;;9.99;80.09
80648;BME280;70012;0.000;0.000;2024-02-14T09:26:06;100820.19;;;10.04;80.36
80648;BME280;70012;0.000;0.000;2024-02-14T09:28:33;100806.63;;;10.09;79.88
80648;BME280;70012;0.000;0.000;2024-02-14T09:31:01;100823.38;;;10.24;79.67
80648;BME280;70012;0.000;0.000;2024-02-14T09:33:30;100818.63;;;10.32;79.55
80648;BME280;70012;0.000;0.000;2024-02-14T09:35:57;100818.75;;;10.37;79.32
80648;BME280;70012;0.000;0.000;2024-02-14T09:38:24;100814.00;;;10.44;78.35
80648;BME280;70012;0.000;0.000;2024-02-14T09:40:53;100819.81;;;10.48;78.68
80648;BME280;70012;0.000;0.000;2024-02-14T09:43:38;100818.38;;;10.57;78.33
80648;BME280;70012;0.000;0.000;2024-02-14T09:46:06;100819.91;;;10.65;78.33
80648;BME280;70012;0.000;0.000;2024-02-14T09:48:34;100826.53;;;10.69;78.31
80648;BME280;70012;0.000;0.000;2024-02-14T09:51:02;100820.09;;;10.75;77.85
80648;BME280;70012;0.000;0.000;2024-02-14T09:53:29;100827.59;;;10.80;78.05
80648;BME280;70012;0.000;0.000;2024-02-14T09:55:56;100836.75;;;10.85;77.85
80648;BME280;70012;0.000;0.000;2024-02-14T09:58:23;100842.56;;;10.89;76.88
80648;BME280;70012;0.000;0.000;2024-02-14T10:00:50;100848.41;;;10.93;76.82
80648;BME280;70012;0.000;0.000;2024-02-14T10:03:17;100851.69;;;10.95;76.80
80648;BME280;70012;0.000;0.000;2024-02-14T10:05:44;100853.38;;;10.96;76.58
80648;BME280;70012;0.000;0.000;2024-02-14T10:08:11;100848.22;;;10.99;77.18
80648;BME280;70012;0.000;0.000;2024-02-14T10:10:37;100849.19;;;11.05;76.92
80648;BME280;70012;0.000;0.000;2024-02-14T10:13:05;100837.38;;;11.04;76.66
80648;BME280;70012;0.000;0.000;2024-02-14T10:15:33;100839.47;;;11.14;76.79
80648;BME280;70012;0.000;0.000;2024-02-14T10:18:00;100841.75;;;11.17;76.06
80648;BME280;70012;0.000;0.000;2024-02-14T10:20:27;100856.13;;;11.25;75.95
80648;BME280;70012;0.000;0.000;2024-02-14T10:23:03;100861.09;;;11.28;76.36
80648;BME280;70012;0.000;0.000;2024-02-14T10:25:30;100871.59;;;11.31;76.11
80648;BME280;70012;0.000;0.000;2024-02-14T10:28:04;100848.00;;;11.30;75.43
80648;BME280;70012;0.000;0.000;2024-02-14T10:30:36;100862.28;;;11.32;75.64
80648;BME280;70012;0.000;0.000;2024-02-14T10:33:04;100854.06;;;11.32;75.40
80648;BME280;70012;0.000;0.000;2024-02-14T10:35:50;100845.59;;;11.33;75.21
80648;BME280;70012;0.000;0.000;2024-02-14T10:38:18;100854.06;;;11.32;75.31
80648;BME280;70012;0.000;0.000;2024-02-14T10:40:47;100861.22;;;11.33;75.31
80648;BME280;70012;0.000;0.000;2024-02-14T10:43:14;100854.66;;;11.34;75.41
80648;BME280;70012;0.000;0.000;2024-02-14T10:45:41;100856.28;;;11.35;75.29
80648;BME280;70012;0.000;0.000;2024-02-14T10:48:11;100854.16;;;11.37;75.75
80648;BME280;70012;0.000;0.000;2024-02-14T10:50:42;100852.34;;;11.43;75.12
80648;BME280;70012;0.000;0.000;2024-02-14T10:53:13;100845.19;;;11.42;75.48
80648;BME280;70012;0.000;0.000;2024-02-14T10:55:44;100856.00;;;11.48;74.83
80648;BME280;70012;0.000;0.000;2024-02-14T10:58:12;100844.03;;;11.54;74.70
80648;BME280;70012;0.000;0.000;2024-02-14T11:00:40;100850.69;;;11.59;75.25
80648;BME280;70012;0.000;0.000;2024-02-14T11:03:08;100849.38;;;11.61;74.99
80648;BME280;70012;0.000;0.000;2024-02-14T11:05:44;100843.38;;;11.64;75.28
80648;BME280;70012;0.000;0.000;2024-02-14T11:08:18;100850.84;;;11.69;75.33
80648;BME280;70012;0.000;0.000;2024-02-14T11:10:54;100842.97;;;11.73;74.98
80648;BME280;70012;0.000;0.000;2024-02-14T11:13:25;100837.22;;;11.74;74.74
80648;BME280;70012;0.000;0.000;2024-02-14T11:15:52;100844.47;;;11.80;75.30
80648;BME280;70012;0.000;0.000;2024-02-14T11:18:30;100844.56;;;11.85;74.81
80648;BME280;70012;0.000;0.000;2024-02-14T11:20:57;100849.88;;;11.92;74.83
80648;BME280;70012;0.000;0.000;2024-02-14T11:23:30;100844.72;;;11.96;74.94
80648;BME280;70012;0.000;0.000;2024-02-14T11:26:01;100842.91;;;12.01;74.46
80648;BME280;70012;0.000;0.000;2024-02-14T11:28:29;100842.66;;;12.03;74.37
80648;BME280;70012;0.000;0.000;2024-02-14T11:31:02;100849.06;;;12.09;73.75
80648;BME280;70012;0.000;0.000;2024-02-14T11:33:31;100849.38;;;12.12;73.59
80648;BME280;70012;0.000;0.000;2024-02-14T11:36:07;100842.72;;;12.08;73.56
80648;BME280;70012;0.000;0.000;2024-02-14T11:38:36;100858.13;;;12.09;73.19
80648;BME280;70012;0.000;0.000;2024-02-14T11:41:03;100857.88;;;12.11;73.81
80648;BME280;70012;0.000;0.000;2024-02-14T11:43:30;100854.88;;;12.12;73.34
80648;BME280;70012;0.000;0.000;2024-02-14T11:45:57;100859.53;;;12.12;73.31
80648;BME280;70012;0.000;0.000;2024-02-14T11:48:24;100852.41;;;12.11;73.36
80648;BME280;70012;0.000;0.000;2024-02-14T11:50:53;100847.41;;;12.08;73.04
80648;BME280;70012;0.000;0.000;2024-02-14T11:53:20;100852.13;;;12.12;73.71
80648;BME280;70012;0.000;0.000;2024-02-14T11:55:47;100846.13;;;12.15;73.47
80648;BME280;70012;0.000;0.000;2024-02-14T11:58:14;100856.03;;;12.16;73.25
80648;BME280;70012;0.000;0.000;2024-02-14T12:00:47;100849.94;;;12.14;73.41
80648;BME280;70012;0.000;0.000;2024-02-14T12:03:21;100856.03;;;12.16;73.25
80648;BME280;70012;0.000;0.000;2024-02-14T12:05:51;100852.22;;;12.17;73.29
80648;BME280;70012;0.000;0.000;2024-02-14T12:08:18;100843.38;;;12.15;73.26
80648;BME280;70012;0.000;0.000;2024-02-14T12:10:46;100834.59;;;12.13;73.50
80648;BME280;70012;0.000;0.000;2024-02-14T12:13:18;100841.72;;;12.14;73.65
80648;BME280;70012;0.000;0.000;2024-02-14T12:15:48;100841.72;;;12.14;73.76
80648;BME280;70012;0.000;0.000;2024-02-14T12:18:16;100841.22;;;12.17;73.55
80648;BME280;70012;0.000;0.000;2024-02-14T12:20:45;100838.16;;;12.14;73.20
80648;BME280;70012;0.000;0.000;2024-02-14T12:23:17;100835.09;;;12.10;73.13
80648;BME280;70012;0.000;0.000;2024-02-14T12:25:45;100826.03;;;12.10;73.64
80648;BME280;70012;0.000;0.000;2024-02-14T12:28:19;100830.44;;;12.11;74.05
80648;BME280;70012;0.000;0.000;2024-02-14T12:30:46;100828.00;;;12.14;74.28
80648;BME280;70012;0.000;0.000;2024-02-14T12:33:15;100834.06;;;12.16;74.43
80648;BME280;70012;0.000;0.000;2024-02-14T12:35:44;100828.59;;;12.16;73.78
80648;BME280;70012;0.000;0.000;2024-02-14T12:38:12;100828.09;;;12.20;73.78
80648;BME280;70012;0.000;0.000;2024-02-14T12:40:40;100825.56;;;12.18;73.89
80648;BME280;70012;0.000;0.000;2024-02-14T12:43:14;100826.44;;;12.19;73.88
80648;BME280;70012;0.000;0.000;2024-02-14T12:45:43;100825.91;;;12.22;73.98
80648;BME280;70012;0.000;0.000;2024-02-14T12:48:12;100829.22;;;12.24;73.62
80648;BME280;70012;0.000;0.000;2024-02-14T12:50:40;100823.25;;;12.27;74.19
80648;BME280;70012;0.000;0.000;2024-02-14T12:53:14;100816.09;;;12.26;74.56
80648;BME280;70012;0.000;0.000;2024-02-14T12:55:40;100829.56;;;12.27;74.63
80648;BME280;70012;0.000;0.000;2024-02-14T12:58:07;100827.06;;;12.26;74.53
80648;BME280;70012;0.000;0.000;2024-02-14T13:00:34;100819.91;;;12.25;74.52
80648;BME280;70012;0.000;0.000;2024-02-14T13:03:01;100816.59;;;12.23;74.39
80648;BME280;70012;0.000;0.000;2024-02-14T13:05:27;100808.88;;;12.20;74.59
80648;BME280;70012;0.000;0.000;2024-02-14T13:07:54;100812.13;;;12.16;74.58
80648;BME280;70012;0.000;0.000;2024-02-14T13:10:21;100818.13;;;12.13;74.76